Time;durP1;ratioP1;P1;durP2;ratioP2;P2;SDS_P1;SDS_P2;PMS_P1;PMS_P2;Temp;Humidity;BMP_temperature;BMP_pressure;BME280_temperature;BME280_humidity;BME280_pressure;Samples;Min_cycle;Max_cycle;Signal;HPM_P1;HPM_P2
2022/12/12 00:00:59;;;;;;;21.55;11.35;;;-4.80;75.70;;;;;;5005001;28;20049;-61
2022/12/12 00:03:24;;;;;;;20.60;11.05;;;-4.70;75.90;;;;;;5009776;28;20695;-60
2022/12/12 00:05:54;;;;;;;21.38;11.10;;;-4.70;76.00;;;;;;5016748;28;20034;-60
2022/12/12 00:08:20;;;;;;;23.23;11.43;;;-4.70;76.10;;;;;;5017982;28;20049;-61
2022/12/12 00:10:45;;;;;;;23.85;11.65;;;-4.60;76.20;;;;;;5017015;28;24410;-62
2022/12/12 00:13:11;;;;;;;24.05;11.80;;;-4.60;76.40;;;;;;5017920;28;20459;-59
2022/12/12 00:15:37;;;;;;;25.88;12.27;;;-4.60;76.40;;;;;;5017396;28;20092;-60
2022/12/12 00:18:02;;;;;;;28.38;12.25;;;-4.50;76.60;;;;;;5011008;28;20128;-61
2022/12/12 00:20:28;;;;;;;27.08;12.32;;;-4.50;76.70;;;;;;4989059;28;20445;-61
2022/12/12 00:22:53;;;;;;;58.83;13.18;;;-4.40;76.80;;;;;;5005939;28;20045;-61
2022/12/12 00:25:19;;;;;;;32.17;13.00;;;-4.40;76.90;;;;;;5003226;28;20084;-59
2022/12/12 00:27:44;;;;;;;41.30;13.82;;;-4.40;76.80;;;;;;5006452;28;20056;-60
2022/12/12 00:30:11;;;;;;;34.13;14.02;;;-4.40;77.00;;;;;;5009245;28;20092;-61
2022/12/12 00:32:36;;;;;;;34.72;13.50;;;-4.30;77.30;;;;;;5003301;28;20069;-62
2022/12/12 00:35:02;;;;;;;35.47;13.25;;;-4.30;77.40;;;;;;5004936;28;20038;-61
2022/12/12 00:37:27;;;;;;;36.83;14.95;;;-4.20;77.50;;;;;;5007790;28;20510;-58
2022/12/12 00:39:53;;;;;;;31.60;14.43;;;-4.20;77.40;;;;;;5003458;28;20040;-61
2022/12/12 00:42:19;;;;;;;37.33;13.70;;;-4.20;77.60;;;;;;5007977;28;20575;-62
2022/12/12 00:44:44;;;;;;;39.63;13.70;;;-4.20;77.60;;;;;;5004405;28;20026;-60
2022/12/12 00:47:10;;;;;;;45.28;14.30;;;-4.10;77.70;;;;;;5006493;28;20049;-62
2022/12/12 00:49:35;;;;;;;40.63;13.57;;;-4.10;77.80;;;;;;5004793;28;20497;-60
2022/12/12 00:52:01;;;;;;;47.72;16.10;;;-4.00;77.90;;;;;;5010024;28;20037;-61
2022/12/12 00:54:27;;;;;;;37.75;14.52;;;-4.00;78.00;;;;;;5004332;28;20083;-61
2022/12/12 00:56:52;;;;;;;56.67;14.35;;;-4.00;78.20;;;;;;5006383;28;20033;-62
2022/12/12 00:59:18;;;;;;;44.53;15.02;;;-4.00;78.30;;;;;;5009562;28;20128;-61
2022/12/12 01:01:45;;;;;;;42.38;15.05;;;-3.90;78.40;;;;;;5004918;28;20037;-61
2022/12/12 01:04:10;;;;;;;64.25;15.02;;;-3.90;78.30;;;;;;5005588;28;20062;-61
2022/12/12 01:06:36;;;;;;;47.22;14.02;;;-3.90;78.50;;;;;;5015836;28;20091;-61
2022/12/12 01:09:02;;;;;;;63.85;15.55;;;-3.80;78.60;;;;;;5016888;28;20030;-61
2022/12/12 01:11:28;;;;;;;55.20;13.82;;;-3.80;78.70;;;;;;5014138;28;20488;-62
2022/12/12 01:13:54;;;;;;;70.90;15.55;;;-3.80;78.70;;;;;;5015165;28;20061;-61
2022/12/12 01:16:21;;;;;;;48.25;14.02;;;-3.80;78.70;;;;;;5016513;28;20049;-61
2022/12/12 01:18:47;;;;;;;45.00;13.30;;;-3.80;78.60;;;;;;5011676;28;20064;-60
2022/12/12 01:21:15;;;;;;;48.35;13.77;;;-3.80;78.60;;;;;;5005041;28;20442;-61
2022/12/12 01:23:40;;;;;;;40.90;15.05;;;-3.80;78.60;;;;;;5007629;28;20087;-61
2022/12/12 01:26:12;;;;;;;41.60;14.18;;;-3.80;78.50;;;;;;5005312;28;20037;-61
2022/12/12 01:28:38;;;;;;;61.67;15.43;;;-3.80;78.60;;;;;;5008323;28;20119;-62
2022/12/12 01:31:04;;;;;;;56.13;14.77;;;-3.80;78.60;;;;;;5011873;28;20472;-60
2022/12/12 01:33:31;;;;;;;69.10;16.35;;;-3.90;78.60;;;;;;5009037;28;20042;-62
2022/12/12 01:35:56;;;;;;;86.95;16.38;;;-3.90;78.60;;;;;;5002995;28;20072;-60
2022/12/12 01:38:23;;;;;;;86.55;16.60;;;-3.90;78.80;;;;;;5011059;28;20168;-62
2022/12/12 01:40:50;;;;;;;59.42;14.82;;;-4.00;78.90;;;;;;5005840;28;20085;-60
2022/12/12 01:43:18;;;;;;;97.95;15.43;;;-4.00;79.00;;;;;;5003971;28;20157;-61
2022/12/12 01:46:01;;;;;;;81.57;15.40;;;-4.00;79.10;;;;;;5004942;28;20030;-60
2022/12/12 01:48:51;;;;;;;67.90;15.52;;;-4.00;79.20;;;;;;5006440;28;20033;-61
2022/12/12 01:51:20;;;;;;;51.28;15.57;;;-4.10;79.20;;;;;;5008270;28;20069;-62
2022/12/12 01:53:49;;;;;;;86.47;18.50;;;-4.10;79.10;;;;;;5009450;28;20426;-62
2022/12/12 01:56:18;;;;;;;40.40;15.35;;;-4.10;79.20;;;;;;5004819;28;20036;-60
2022/12/12 01:58:46;;;;;;;48.38;15.18;;;-4.20;79.30;;;;;;5012562;28;20038;-60
2022/12/12 02:01:13;;;;;;;43.97;15.90;;;-4.20;79.40;;;;;;5005868;28;20037;-61
2022/12/12 02:03:39;;;;;;;38.90;14.95;;;-4.20;79.60;;;;;;5010318;28;20034;-61
2022/12/12 02:06:10;;;;;;;38.95;15.00;;;-4.20;79.80;;;;;;5005480;28;20057;-60
2022/12/12 02:08:37;;;;;;;56.58;15.60;;;-4.10;80.00;;;;;;5006432;28;20025;-60
2022/12/12 02:11:03;;;;;;;47.00;15.90;;;-4.20;80.00;;;;;;5014243;28;20036;-62
2022/12/12 02:13:31;;;;;;;57.67;15.68;;;-4.10;80.10;;;;;;5015075;28;20041;-58
2022/12/12 02:16:15;;;;;;;46.83;15.30;;;-4.10;80.00;;;;;;5016045;28;20040;-61
2022/12/12 02:18:51;;;;;;;208.00;18.95;;;-4.10;80.50;;;;;;5004919;28;20686;-61
2022/12/12 02:21:29;;;;;;;45.00;14.88;;;-4.20;79.30;;;;;;5006822;28;20748;-60
2022/12/12 02:24:14;;;;;;;61.47;16.08;;;-4.20;79.20;;;;;;5009148;28;20545;-61
2022/12/12 02:27:17;;;;;;;41.97;13.32;;;-4.20;79.30;;;;;;5008644;28;20048;-61
2022/12/12 02:30:23;;;;;;;46.78;14.90;;;-4.30;79.30;;;;;;5015130;28;20034;-61
2022/12/12 02:33:10;;;;;;;53.15;16.73;;;-4.30;79.60;;;;;;5007235;28;20060;-61
2022/12/12 02:35:50;;;;;;;47.33;15.90;;;-4.30;79.80;;;;;;5005664;28;20440;-60
2022/12/12 02:38:49;;;;;;;33.47;14.45;;;-4.30;79.90;;;;;;5011147;28;20029;-60
2022/12/12 02:41:23;;;;;;;42.38;16.00;;;-4.30;80.10;;;;;;5015217;28;20045;-60
2022/12/12 02:44:13;;;;;;;54.17;15.52;;;-4.30;80.00;;;;;;5011009;28;20121;-60
2022/12/12 02:47:00;;;;;;;39.20;16.17;;;-4.20;80.20;;;;;;5005203;28;20056;-61
2022/12/12 02:49:31;;;;;;;39.63;15.52;;;-4.20;80.00;;;;;;5010723;28;20045;-60
2022/12/12 02:51:59;;;;;;;39.97;16.23;;;-4.20;79.90;;;;;;5003828;28;20044;-61
2022/12/12 02:54:25;;;;;;;33.50;14.68;;;-4.20;80.00;;;;;;5005209;28;20045;-61
2022/12/12 02:56:57;;;;;;;38.35;15.85;;;-4.20;80.00;;;;;;5011316;28;20034;-60
2022/12/12 02:59:39;;;;;;;42.70;15.43;;;-4.20;80.10;;;;;;5013634;28;20072;-61
2022/12/12 03:02:17;;;;;;;68.15;17.70;;;-4.20;80.20;;;;;;5006695;28;20052;-61
2022/12/12 03:08:17;;;;;;;46.15;16.83;;;-4.20;80.20;;;;;;5017429;28;20084;-61
2022/12/12 03:10:56;;;;;;;63.70;17.30;;;-4.20;79.90;;;;;;5011782;28;20038;-60
2022/12/12 03:14:08;;;;;;;43.83;17.48;;;-4.20;80.10;;;;;;5019343;28;20346;-60
2022/12/12 03:17:11;;;;;;;51.78;17.35;;;-4.20;80.20;;;;;;5019316;28;20509;-59
2022/12/12 03:20:16;;;;;;;41.42;16.20;;;-4.20;80.30;;;;;;4929282;29;20516;-61
2022/12/12 03:22:53;;;;;;;73.47;18.65;;;-4.30;80.30;;;;;;5002081;28;20115;-61
2022/12/12 03:25:31;;;;;;;42.35;16.80;;;-4.30;80.90;;;;;;5019111;28;20116;-62
2022/12/12 03:28:03;;;;;;;38.20;16.27;;;-4.30;80.00;;;;;;5016748;28;20061;-61
2022/12/12 03:30:34;;;;;;;50.83;16.15;;;-4.30;80.00;;;;;;5015802;28;20565;-61
2022/12/12 03:33:10;;;;;;;70.10;18.05;;;-4.30;80.10;;;;;;5015832;28;20057;-62
2022/12/12 03:35:40;;;;;;;55.20;16.85;;;-4.30;80.30;;;;;;5016987;28;20041;-61
2022/12/12 03:38:16;;;;;;;66.85;17.63;;;-4.30;80.50;;;;;;5016699;28;20034;-61
2022/12/12 03:40:54;;;;;;;53.75;17.98;;;-4.30;80.60;;;;;;5014667;28;20038;-61
2022/12/12 03:43:34;;;;;;;60.38;17.38;;;-4.30;80.90;;;;;;5016570;28;20034;-61
2022/12/12 03:46:16;;;;;;;53.70;17.48;;;-4.30;81.10;;;;;;5012943;28;20513;-60
2022/12/12 03:49:10;;;;;;;114.80;18.15;;;-4.20;81.00;;;;;;5016172;28;20040;-60
2022/12/12 03:51:42;;;;;;;63.90;18.15;;;-4.20;81.10;;;;;;4983490;28;20022;-61
2022/12/12 03:54:09;;;;;;;50.00;17.65;;;-4.20;81.10;;;;;;5014315;28;20030;-60
2022/12/12 03:56:48;;;;;;;55.28;16.73;;;-4.20;81.00;;;;;;5013331;28;20038;-60
2022/12/12 03:59:20;;;;;;;64.90;18.50;;;-4.20;81.30;;;;;;5015832;28;20071;-60
2022/12/12 04:01:50;;;;;;;54.17;18.05;;;-4.20;81.30;;;;;;5016020;28;20124;-62
2022/12/12 04:04:40;;;;;;;61.50;16.73;;;-4.10;81.40;;;;;;5014202;28;20683;-61
2022/12/12 04:07:27;;;;;;;160.68;20.08;;;-4.10;81.60;;;;;;5014338;28;20152;-62
2022/12/12 04:12:58;;;;;;;137.55;21.63;;;-4.00;81.30;;;;;;5012577;28;20045;-60
2022/12/12 04:15:50;;;;;;;54.90;19.20;;;-4.00;81.30;;;;;;5015450;28;20063;-61
2022/12/12 04:18:51;;;;;;;56.97;19.95;;;-4.00;81.30;;;;;;5015875;28;20033;-61
2022/12/12 04:24:24;;;;;;;70.20;17.20;;;-3.90;81.40;;;;;;5013080;28;20540;-60
2022/12/12 04:27:05;;;;;;;61.40;16.70;;;-3.80;81.70;;;;;;5012841;28;20033;-61
2022/12/12 04:29:36;;;;;;;115.72;18.85;;;-3.80;81.60;;;;;;5014498;28;20077;-62
2022/12/12 04:32:19;;;;;;;111.22;18.25;;;-3.70;81.30;;;;;;5013216;28;20041;-61
2022/12/12 04:35:09;;;;;;;104.85;19.58;;;-3.80;81.20;;;;;;5016831;28;20044;-60
2022/12/12 04:38:04;;;;;;;70.30;15.63;;;-3.80;80.90;;;;;;5014312;28;20038;-60
2022/12/12 04:40:39;;;;;;;108.90;18.25;;;-3.80;81.10;;;;;;5012830;28;20082;-62
2022/12/12 04:43:08;;;;;;;60.67;14.98;;;-3.80;80.80;;;;;;5015670;28;20125;-59
2022/12/12 04:45:39;;;;;;;80.78;15.90;;;-3.90;80.70;;;;;;5017205;28;20069;-62
2022/12/12 04:48:06;;;;;;;96.90;16.00;;;-3.90;80.90;;;;;;5014198;28;20378;-60
2022/12/12 04:50:34;;;;;;;87.13;16.70;;;-3.90;80.90;;;;;;5014125;28;20689;-62
2022/12/12 04:53:03;;;;;;;58.63;15.75;;;-4.00;80.70;;;;;;5012092;28;20072;-62
2022/12/12 04:55:33;;;;;;;71.15;17.30;;;-4.00;80.50;;;;;;5012975;28;20469;-60
2022/12/12 04:58:01;;;;;;;80.15;17.33;;;-4.00;80.60;;;;;;5014339;28;20038;-61
2022/12/12 05:00:32;;;;;;;56.67;15.02;;;-4.10;80.60;;;;;;5015292;28;20041;-62
2022/12/12 05:03:12;;;;;;;38.80;13.82;;;-4.10;80.50;;;;;;5015050;28;20034;-61
2022/12/12 05:05:47;;;;;;;39.03;14.50;;;-4.20;80.40;;;;;;5014707;28;20037;-60
2022/12/12 05:08:31;;;;;;;45.30;14.52;;;-4.20;80.30;;;;;;5012291;28;20594;-61
2022/12/12 05:11:00;;;;;;;91.80;16.10;;;-4.30;80.30;;;;;;5012454;28;20453;-61
2022/12/12 05:13:31;;;;;;;43.15;15.07;;;-4.30;80.20;;;;;;5016494;28;20486;-61
2022/12/12 05:16:00;;;;;;;30.88;14.20;;;-4.40;80.10;;;;;;5015914;28;20037;-62
2022/12/12 05:18:26;;;;;;;55.70;14.88;;;-4.40;80.20;;;;;;5016529;28;20464;-60
2022/12/12 05:20:52;;;;;;;36.00;15.52;;;-4.50;80.40;;;;;;5015105;28;20065;-61
2022/12/12 05:23:17;;;;;;;41.00;14.68;;;-4.50;80.60;;;;;;5014567;28;20358;-62
2022/12/12 05:25:43;;;;;;;54.78;13.93;;;-4.50;80.70;;;;;;4992731;28;20057;-61
2022/12/12 05:28:09;;;;;;;51.67;14.88;;;-4.50;80.70;;;;;;5012203;28;20152;-61
2022/12/12 05:30:34;;;;;;;65.82;15.30;;;-4.50;80.70;;;;;;5011401;28;20525;-62
2022/12/12 05:33:00;;;;;;;71.82;17.10;;;-4.50;80.70;;;;;;5011651;28;20098;-62
2022/12/12 05:35:26;;;;;;;58.40;18.02;;;-4.50;80.70;;;;;;5015204;28;20041;-61
2022/12/12 05:37:52;;;;;;;57.50;16.58;;;-4.50;80.60;;;;;;5015288;28;20048;-61
2022/12/12 05:40:18;;;;;;;51.50;16.23;;;-4.40;80.70;;;;;;5014037;28;20026;-61
2022/12/12 05:42:44;;;;;;;43.40;15.82;;;-4.50;80.60;;;;;;5011614;28;20038;-61
2022/12/12 05:45:10;;;;;;;52.53;15.82;;;-4.40;80.60;;;;;;5015876;28;20527;-60
2022/12/12 05:47:36;;;;;;;57.70;15.27;;;-4.40;80.50;;;;;;5016211;28;20022;-59
2022/12/12 05:50:02;;;;;;;91.10;17.25;;;-4.40;80.40;;;;;;5015896;28;20034;-60
2022/12/12 05:52:28;;;;;;;62.58;17.42;;;-4.40;80.40;;;;;;5015268;28;20037;-61
2022/12/12 05:54:54;;;;;;;79.22;15.80;;;-4.40;80.40;;;;;;5015467;28;20037;-60
2022/12/12 05:57:20;;;;;;;49.60;14.35;;;-4.40;80.30;;;;;;5017182;28;20115;-60
2022/12/12 05:59:46;;;;;;;82.80;17.70;;;-4.40;80.10;;;;;;5015646;28;20521;-60
2022/12/12 06:02:12;;;;;;;52.97;16.38;;;-4.50;80.10;;;;;;5015212;28;20045;-59
2022/12/12 06:04:38;;;;;;;42.80;16.02;;;-4.50;80.10;;;;;;5015979;28;20112;-62
2022/12/12 06:07:04;;;;;;;33.85;15.90;;;-4.50;79.90;;;;;;5014932;28;20446;-60
2022/12/12 06:09:30;;;;;;;59.53;15.50;;;-4.60;79.80;;;;;;5016026;28;20049;-60
2022/12/12 06:11:55;;;;;;;53.88;15.90;;;-4.60;79.80;;;;;;5014067;28;20109;-60
2022/12/12 06:14:21;;;;;;;64.20;17.45;;;-4.80;79.70;;;;;;5013389;28;20121;-60
2022/12/12 06:16:46;;;;;;;38.30;16.25;;;-4.70;79.90;;;;;;5015208;28;20341;-62
2022/12/12 06:19:12;;;;;;;40.22;16.92;;;-4.70;79.90;;;;;;5013666;28;20061;-61
2022/12/12 06:21:37;;;;;;;34.90;15.90;;;-4.80;79.90;;;;;;5013568;28;20038;-60
2022/12/12 06:24:07;;;;;;;33.85;15.88;;;-4.80;80.00;;;;;;5014579;28;20120;-61
2022/12/12 06:26:32;;;;;;;33.30;15.52;;;-4.80;80.20;;;;;;5015117;28;20052;-61
2022/12/12 06:28:58;;;;;;;31.55;14.50;;;-4.80;80.20;;;;;;5015456;28;20037;-61
2022/12/12 06:31:24;;;;;;;29.92;14.25;;;-4.80;79.90;;;;;;5014698;28;20037;-60
2022/12/12 06:33:49;;;;;;;36.85;15.70;;;-4.80;79.50;;;;;;5016581;28;20533;-60
2022/12/12 06:36:22;;;;;;;39.65;17.95;;;-4.80;79.00;;;;;;5014993;28;20115;-62
2022/12/12 06:38:53;;;;;;;68.25;17.15;;;-4.80;78.20;;;;;;5014054;28;20520;-61
2022/12/12 06:41:19;;;;;;;115.97;16.85;;;-4.90;77.80;;;;;;5015235;28;20050;-62
2022/12/12 06:43:45;;;;;;;113.50;17.85;;;-5.00;77.70;;;;;;5013995;28;20130;-60
2022/12/12 06:46:20;;;;;;;69.03;16.33;;;-5.20;77.50;;;;;;5014941;28;20045;-59
2022/12/12 06:48:46;;;;;;;55.13;15.68;;;-5.30;77.60;;;;;;5014014;28;20071;-61
2022/12/12 06:51:19;;;;;;;55.80;16.30;;;-5.40;78.00;;;;;;5015469;28;20112;-61
2022/12/12 06:53:45;;;;;;;46.30;15.57;;;-5.40;78.50;;;;;;5014533;28;20046;-60
2022/12/12 06:56:16;;;;;;;61.42;16.45;;;-5.50;78.70;;;;;;5014601;28;20041;-61
2022/12/12 06:58:42;;;;;;;31.23;14.43;;;-5.50;78.80;;;;;;5016102;28;20038;-61
2022/12/12 07:01:10;;;;;;;56.67;16.48;;;-5.60;78.90;;;;;;5015500;28;20072;-61
2022/12/12 07:03:36;;;;;;;34.90;16.38;;;-5.60;79.20;;;;;;5018725;28;20033;-60
2022/12/12 07:06:02;;;;;;;179.43;18.15;;;-5.60;79.30;;;;;;5016088;28;20084;-61
2022/12/12 07:08:27;;;;;;;36.63;14.88;;;-5.60;79.30;;;;;;5001225;28;20535;-60
2022/12/12 07:10:54;;;;;;;55.03;16.08;;;-5.60;79.30;;;;;;5018850;28;20117;-60
2022/12/12 07:13:20;;;;;;;59.35;16.92;;;-5.60;79.40;;;;;;5019441;28;20077;-60
2022/12/12 07:15:48;;;;;;;44.50;15.88;;;-5.60;79.50;;;;;;5017581;28;20049;-61
2022/12/12 07:18:16;;;;;;;49.13;16.27;;;-5.60;79.70;;;;;;5019736;28;20053;-61
2022/12/12 07:20:43;;;;;;;40.70;16.73;;;-5.60;79.80;;;;;;5017871;28;20052;-61
2022/12/12 07:23:10;;;;;;;39.78;15.70;;;-5.50;80.00;;;;;;5017216;28;20084;-60
2022/12/12 07:25:40;;;;;;;47.40;16.27;;;-5.50;80.00;;;;;;5018075;28;20116;-60
2022/12/12 07:28:07;;;;;;;89.32;17.10;;;-5.50;79.90;;;;;;5016990;28;20547;-60
2022/12/12 07:30:33;;;;;;;37.20;16.33;;;-5.40;79.70;;;;;;5018933;28;20041;-59
2022/12/12 07:32:59;;;;;;;45.58;16.88;;;-5.40;79.30;;;;;;5016933;28;20291;-61
2022/12/12 07:35:25;;;;;;;33.22;15.55;;;-5.50;79.30;;;;;;5018710;28;20084;-61
2022/12/12 07:37:50;;;;;;;80.07;16.20;;;-5.50;79.30;;;;;;5017309;28;20259;-62
2022/12/12 07:40:16;;;;;;;42.47;17.85;;;-5.50;79.40;;;;;;5016813;28;20113;-60
2022/12/12 07:42:42;;;;;;;46.95;18.30;;;-5.50;79.40;;;;;;5016490;28;20038;-61
2022/12/12 07:45:08;;;;;;;53.40;17.40;;;-5.50;79.50;;;;;;5018344;28;20405;-60
2022/12/12 07:47:34;;;;;;;50.63;17.10;;;-5.40;79.50;;;;;;5017887;28;20108;-62
2022/12/12 07:49:59;;;;;;;51.28;16.70;;;-5.40;79.00;;;;;;5018554;28;20038;-61
2022/12/12 07:52:25;;;;;;;35.30;15.55;;;-5.50;78.80;;;;;;5017389;28;20041;-60
2022/12/12 07:54:51;;;;;;;47.70;15.40;;;-5.50;78.70;;;;;;5017168;28;20041;-60
2022/12/12 07:57:16;;;;;;;37.00;14.98;;;-5.50;78.70;;;;;;5016766;28;20089;-62
2022/12/12 07:59:42;;;;;;;41.05;15.70;;;-5.50;78.60;;;;;;5010965;28;20032;-60
2022/12/12 08:02:10;;;;;;;39.72;16.67;;;-5.60;78.60;;;;;;5014930;28;20124;-59
2022/12/12 08:04:36;;;;;;;37.22;15.77;;;-5.60;78.90;;;;;;4999863;28;20053;-60
2022/12/12 08:07:01;;;;;;;34.63;15.32;;;-5.60;79.20;;;;;;5016993;28;20033;-61
2022/12/12 08:09:27;;;;;;;35.70;16.55;;;-5.60;79.30;;;;;;5017473;28;20037;-61
2022/12/12 08:11:58;;;;;;;35.92;16.95;;;-5.60;79.20;;;;;;5017852;28;20163;-61
2022/12/12 08:14:24;;;;;;;36.97;16.65;;;-5.60;79.10;;;;;;5016171;28;20046;-62
2022/12/12 08:16:50;;;;;;;37.53;17.77;;;-5.50;79.20;;;;;;5016725;28;20042;-61
2022/12/12 08:19:16;;;;;;;38.85;17.45;;;-5.50;79.10;;;;;;5017664;28;20034;-61
2022/12/12 08:21:43;;;;;;;38.63;16.77;;;-5.50;79.00;;;;;;5017006;28;20057;-61
2022/12/12 08:24:11;;;;;;;35.28;16.17;;;-5.50;79.00;;;;;;5015241;28;20045;-61
2022/12/12 08:26:37;;;;;;;36.30;17.58;;;-5.50;78.80;;;;;;5015754;28;20354;-61
2022/12/12 08:29:03;;;;;;;36.42;17.15;;;-5.50;78.50;;;;;;5016192;28;20529;-61
2022/12/12 08:31:29;;;;;;;34.38;16.48;;;-5.50;78.30;;;;;;5016468;28;20038;-61
2022/12/12 08:33:55;;;;;;;30.63;14.43;;;-5.50;78.30;;;;;;5015489;28;20052;-60
2022/12/12 08:36:23;;;;;;;32.95;15.40;;;-5.50;78.60;;;;;;5016793;28;20120;-61
2022/12/12 08:38:49;;;;;;;33.40;15.52;;;-5.50;78.70;;;;;;5016806;28;20065;-62
2022/12/12 08:41:16;;;;;;;34.38;16.35;;;-5.40;78.80;;;;;;5016140;28;20076;-60
2022/12/12 08:43:42;;;;;;;35.58;16.88;;;-5.40;78.90;;;;;;5015514;28;20038;-60
2022/12/12 08:46:10;;;;;;;32.92;15.90;;;-5.40;78.80;;;;;;5016557;28;20034;-60
2022/12/12 08:48:35;;;;;;;33.33;16.00;;;-5.30;78.80;;;;;;5017094;28;20034;-62
2022/12/12 08:51:01;;;;;;;33.35;15.68;;;-5.30;78.80;;;;;;5015251;28;20099;-61
2022/12/12 08:53:26;;;;;;;30.90;14.90;;;-5.30;78.80;;;;;;5017323;28;20037;-60
2022/12/12 08:55:52;;;;;;;33.40;15.18;;;-5.30;78.80;;;;;;5016407;28;20091;-62
2022/12/12 08:58:18;;;;;;;33.22;15.27;;;-5.20;78.80;;;;;;5016942;28;20120;-61
2022/12/12 09:00:44;;;;;;;32.58;15.43;;;-5.20;78.70;;;;;;5014758;28;20489;-61
2022/12/12 09:03:10;;;;;;;30.92;15.60;;;-5.20;78.70;;;;;;5009490;28;20029;-59
2022/12/12 09:05:35;;;;;;;33.40;16.02;;;-5.20;78.80;;;;;;5012535;28;20038;-61
2022/12/12 09:08:01;;;;;;;31.20;15.95;;;-5.10;78.80;;;;;;5015502;28;20085;-61
2022/12/12 09:10:27;;;;;;;31.77;16.15;;;-5.10;78.80;;;;;;5014737;28;20030;-61
2022/12/12 09:12:53;;;;;;;36.55;16.80;;;-5.10;78.70;;;;;;5015703;28;20041;-61
2022/12/12 09:15:19;;;;;;;34.10;15.07;;;-5.10;79.20;;;;;;5017007;28;20038;-61
2022/12/12 09:17:45;;;;;;;28.55;14.90;;;-5.00;79.00;;;;;;5016548;28;20071;-61
2022/12/12 09:20:11;;;;;;;32.45;15.77;;;-5.00;79.20;;;;;;5016850;28;20033;-60
2022/12/12 09:22:37;;;;;;;29.35;14.70;;;-4.90;79.20;;;;;;5015108;28;20047;-61
2022/12/12 09:25:04;;;;;;;30.67;15.18;;;-4.90;79.20;;;;;;5016996;28;20124;-62
2022/12/12 09:27:30;;;;;;;29.15;14.80;;;-4.90;79.30;;;;;;5014682;28;20109;-61
2022/12/12 09:29:55;;;;;;;28.52;14.00;;;-4.80;79.40;;;;;;5017122;28;20083;-61
2022/12/12 09:32:21;;;;;;;29.38;14.38;;;-4.80;79.50;;;;;;5014866;28;20033;-62
2022/12/12 09:34:47;;;;;;;27.25;14.20;;;-4.70;80.50;;;;;;5017073;28;20117;-62
2022/12/12 09:37:16;;;;;;;30.08;14.90;;;-4.70;79.90;;;;;;5014681;28;20464;-59
2022/12/12 09:39:42;;;;;;;30.73;14.40;;;-4.60;80.10;;;;;;5016439;28;20053;-61
2022/12/12 09:42:29;;;;;;;32.55;15.20;;;-4.60;80.10;;;;;;5014482;28;20034;-60
2022/12/12 09:45:01;;;;;;;32.72;16.50;;;-4.50;80.20;;;;;;5015095;28;20037;-63
2022/12/12 09:47:49;;;;;;;30.95;15.57;;;-4.50;80.20;;;;;;5018710;28;20057;-60
2022/12/12 09:50:24;;;;;;;31.30;15.48;;;-4.40;80.40;;;;;;5017648;28;20128;-58
2022/12/12 09:52:51;;;;;;;29.85;15.15;;;-4.30;80.20;;;;;;5015666;28;20045;-60
2022/12/12 09:55:20;;;;;;;32.13;17.02;;;-4.30;80.00;;;;;;5017069;28;20092;-60
2022/12/12 09:57:50;;;;;;;33.17;15.93;;;-4.30;79.90;;;;;;5015112;28;20042;-60
2022/12/12 10:00:17;;;;;;;33.15;15.75;;;-4.20;80.10;;;;;;5015815;28;20401;-58
2022/12/12 10:02:43;;;;;;;38.35;16.50;;;-4.20;80.00;;;;;;5013567;28;20038;-62
2022/12/12 10:05:23;;;;;;;33.50;15.93;;;-4.20;79.90;;;;;;5016182;28;20032;-60
2022/12/12 10:08:07;;;;;;;29.15;15.35;;;-4.20;79.90;;;;;;5016136;28;20038;-60
2022/12/12 10:10:37;;;;;;;30.02;14.35;;;-4.10;80.00;;;;;;5016578;28;20033;-61
2022/12/12 10:13:13;;;;;;;36.05;18.52;;;-4.10;80.00;;;;;;5008657;28;20030;-61
2022/12/12 10:15:43;;;;;;;30.45;15.20;;;-4.10;80.10;;;;;;5014148;28;20038;-60
2022/12/12 10:18:17;;;;;;;31.40;14.65;;;-4.00;80.20;;;;;;5009100;28;20037;-60
2022/12/12 10:21:09;;;;;;;;;;;-4.00;80.40;;;;;;5009295;28;20072;-61
2022/12/12 10:23:37;;;;;;;24.08;12.57;;;-4.00;80.70;;;;;;5006458;28;19918;-59
2022/12/12 10:26:10;;;;;;;28.80;14.30;;;-3.90;80.50;;;;;;5012323;28;20022;-59
2022/12/12 10:28:36;;;;;;;54.25;17.60;;;-3.90;80.70;;;;;;5010870;28;20076;-61
2022/12/12 10:31:33;;;;;;;30.17;15.18;;;-3.90;80.90;;;;;;4998495;28;20034;-61
2022/12/12 10:34:16;;;;;;;27.63;14.32;;;-3.80;81.40;;;;;;5012652;28;20034;-60
2022/12/12 10:37:11;;;;;;;27.17;14.02;;;-3.70;81.60;;;;;;5016284;28;20037;-61
2022/12/12 10:39:42;;;;;;;29.75;13.75;;;-3.70;81.70;;;;;;5004311;28;20086;-59
2022/12/12 10:42:26;;;;;;;28.30;16.33;;;-3.60;82.60;;;;;;5019200;28;20044;-60
2022/12/12 10:45:18;;;;;;;;;;;-3.50;82.00;;;;;;5019476;28;20090;-62
2022/12/12 10:47:44;;;;;;;33.38;15.88;;;-3.30;82.40;;;;;;5018717;28;19916;-61
2022/12/12 10:50:09;;;;;;;29.02;15.27;;;-3.20;81.80;;;;;;5018649;28;20114;-61
2022/12/12 10:52:36;;;;;;;29.88;15.20;;;-3.20;81.70;;;;;;5018866;28;20177;-62
2022/12/12 10:55:15;;;;;;;35.45;16.48;;;-3.10;81.80;;;;;;5020006;28;20037;-60
2022/12/12 10:57:40;;;;;;;36.00;16.30;;;-3.00;81.80;;;;;;5019435;28;20053;-61
2022/12/12 11:00:32;;;;;;;33.65;16.67;;;-2.90;81.80;;;;;;5018065;28;20037;-61
2022/12/12 11:02:57;;;;;;;38.10;17.13;;;-2.80;81.90;;;;;;5018381;28;20401;-60
2022/12/12 11:05:28;;;;;;;30.80;15.77;;;-2.70;81.70;;;;;;5019075;28;22792;-60
2022/12/12 11:08:04;;;;;;;34.72;16.15;;;-2.60;81.60;;;;;;5018607;28;20065;-61
2022/12/12 11:10:31;;;;;;;32.75;16.60;;;-2.60;81.60;;;;;;5020230;28;20471;-61
2022/12/12 11:13:01;;;;;;;32.92;15.55;;;-2.50;81.60;;;;;;5018872;28;20037;-62
2022/12/12 11:15:50;;;;;;;30.58;15.40;;;-2.40;81.60;;;;;;5018104;28;20142;-60
2022/12/12 11:18:19;;;;;;;32.60;18.45;;;-2.30;81.90;;;;;;5017491;28;20449;-60
2022/12/12 11:20:48;;;;;;;27.23;14.45;;;-2.20;81.90;;;;;;5016167;28;20045;-61
2022/12/12 11:23:23;;;;;;;25.38;13.27;;;-2.20;82.00;;;;;;5018373;28;20397;-60
2022/12/12 11:25:58;;;;;;;27.30;13.40;;;-2.00;82.10;;;;;;5018097;28;20129;-60
2022/12/12 11:28:25;;;;;;;;;;;-1.90;82.00;;;;;;5014807;28;20397;-60
2022/12/12 11:30:53;;;;;;;24.58;12.82;;;-1.80;82.10;;;;;;5017798;28;20000;-60
2022/12/12 11:33:22;;;;;;;24.17;13.40;;;-1.80;81.70;;;;;;4996733;28;20064;-61
2022/12/12 11:35:54;;;;;;;25.77;14.15;;;-1.70;81.50;;;;;;5017200;28;20409;-62
2022/12/12 11:38:40;;;;;;;29.63;14.75;;;-1.60;81.40;;;;;;5018619;28;20038;-60
2022/12/12 11:41:09;;;;;;;29.40;14.57;;;-1.50;81.00;;;;;;5017389;28;20521;-61
2022/12/12 11:43:37;;;;;;;33.83;15.60;;;-1.40;80.70;;;;;;5016144;28;20042;-60
2022/12/12 11:46:14;;;;;;;29.00;15.80;;;-1.40;80.30;;;;;;5017733;28;20041;-60
2022/12/12 11:48:46;;;;;;;32.47;14.73;;;-1.40;80.20;;;;;;4998565;28;20317;-62
2022/12/12 11:51:27;;;;;;;28.48;13.98;;;-1.50;79.90;;;;;;5016944;28;20103;-62
2022/12/12 11:53:53;;;;;;;28.15;14.13;;;-1.50;79.80;;;;;;5017511;28;20065;-60
2022/12/12 11:56:46;;;;;;;30.05;13.95;;;-1.50;79.90;;;;;;5016209;28;20061;-62
2022/12/12 11:59:32;;;;;;;39.17;14.13;;;-1.50;79.90;;;;;;5015149;28;20511;-61
2022/12/12 12:02:25;;;;;;;26.45;13.45;;;-1.60;79.90;;;;;;5016813;28;20405;-61
2022/12/12 12:05:08;;;;;;;25.58;12.90;;;-1.60;79.90;;;;;;5014009;28;20588;-61
2022/12/12 12:07:43;;;;;;;26.05;11.68;;;-1.70;79.90;;;;;;5015947;28;20111;-61
2022/12/12 12:10:46;;;;;;;26.48;12.50;;;-1.70;79.70;;;;;;5017482;28;20041;-60
2022/12/12 12:13:32;;;;;;;23.88;12.40;;;-1.70;79.90;;;;;;5015680;28;20038;-60
2022/12/12 12:16:00;;;;;;;20.77;11.70;;;-1.80;79.90;;;;;;5015197;28;20040;-61
2022/12/12 12:18:56;;;;;;;21.98;12.02;;;-1.70;80.10;;;;;;5016022;28;20037;-61
2022/12/12 12:21:31;;;;;;;20.58;11.75;;;-1.70;80.20;;;;;;5015849;28;20131;-62
2022/12/12 12:23:56;;;;;;;20.58;11.48;;;-1.70;80.20;;;;;;5016158;28;20033;-61
2022/12/12 12:26:54;;;;;;;22.88;11.93;;;-1.70;80.30;;;;;;5017254;28;20045;-61
2022/12/12 12:29:42;;;;;;;24.90;11.73;;;-1.70;80.00;;;;;;4958576;28;20156;-62
2022/12/12 12:32:22;;;;;;;27.63;11.77;;;-1.60;79.90;;;;;;5015117;28;20060;-61
2022/12/12 12:34:59;;;;;;;22.10;12.15;;;-1.60;79.60;;;;;;5008805;28;20612;-61
2022/12/12 12:37:47;;;;;;;21.95;11.68;;;-1.60;79.60;;;;;;5010465;28;20080;-61
2022/12/12 12:40:22;;;;;;;25.38;12.10;;;-1.60;79.30;;;;;;5016553;28;20033;-62
2022/12/12 12:43:12;;;;;;;23.58;12.30;;;-1.60;78.80;;;;;;5015397;28;20463;-61
2022/12/12 12:45:52;;;;;;;23.40;12.95;;;-1.60;78.80;;;;;;5015505;28;20030;-61
2022/12/12 12:48:17;;;;;;;23.92;13.30;;;-1.60;79.00;;;;;;5016506;28;20037;-62
2022/12/12 12:50:49;;;;;;;22.83;12.88;;;-1.70;79.10;;;;;;5014794;28;20115;-62
2022/12/12 12:53:27;;;;;;;23.70;13.07;;;-1.70;79.10;;;;;;5015772;28;20076;-62
2022/12/12 12:55:57;;;;;;;26.35;13.05;;;-1.70;79.10;;;;;;5015802;28;20030;-62
2022/12/12 12:58:32;;;;;;;25.35;13.40;;;-1.70;79.30;;;;;;5015548;28;20061;-61
2022/12/12 13:01:10;;;;;;;24.45;11.98;;;-1.70;79.60;;;;;;5015507;28;20029;-60